createdAt,value
2022-09-13T00:00:02.504Z,15.27
2022-09-13T00:02:34.563Z,15.18
2022-09-13T00:05:04.346Z,15.64
2022-09-13T00:07:36.393Z,15.89
2022-09-13T00:10:07.738Z,15.19
2022-09-13T00:12:38.568Z,15.08
2022-09-13T00:15:11.375Z,15.08
2022-09-13T00:17:40.208Z,15.14
2022-09-13T00:20:10.237Z,15.06
2022-09-13T00:22:39.112Z,15.10
2022-09-13T00:25:09.019Z,15.09
2022-09-13T00:27:39.275Z,14.99
2022-09-13T00:30:09.954Z,14.99
2022-09-13T00:32:42.067Z,14.94
2022-09-13T00:35:13.153Z,14.83
2022-09-13T00:37:45.112Z,15.01
2022-09-13T00:40:14.712Z,15.02
2022-09-13T00:42:44.896Z,14.58
2022-09-13T00:45:19.156Z,14.53
2022-09-13T00:47:54.151Z,14.85
2022-09-13T00:50:43.705Z,14.53
2022-09-13T00:53:26.165Z,14.34
2022-09-13T00:56:07.168Z,14.63
2022-09-13T00:58:44.825Z,14.48
2022-09-13T01:01:19.875Z,14.61
2022-09-13T01:03:52.782Z,14.78
2022-09-13T01:06:25.997Z,14.73
2022-09-13T01:08:55.170Z,14.68
2022-09-13T01:11:40.362Z,14.64
2022-09-13T01:14:10.900Z,14.50
2022-09-13T01:16:44.825Z,14.36
2022-09-13T01:19:17.561Z,14.98
2022-09-13T01:22:24.477Z,15.16
2022-09-13T01:25:12.634Z,14.61
2022-09-13T01:27:47.632Z,14.77
2022-09-13T01:30:22.798Z,14.65
2022-09-13T01:33:10.598Z,14.74
2022-09-13T01:35:44.717Z,14.81
2022-09-13T01:38:35.579Z,14.53
2022-09-13T01:41:16.875Z,14.72
2022-09-13T01:43:58.744Z,14.67
2022-09-13T01:46:53.850Z,14.46
2022-09-13T01:49:33.887Z,14.24
2022-09-13T01:52:24.576Z,14.78
2022-09-13T01:55:06.185Z,14.29
2022-09-13T01:57:47.010Z,14.23
2022-09-13T02:00:18.038Z,13.96
2022-09-13T02:02:52.147Z,14.59
2022-09-13T02:05:31.378Z,14.08
2022-09-13T02:08:06.534Z,14.48
2022-09-13T02:11:00.890Z,14.27
2022-09-13T02:13:36.280Z,14.38
2022-09-13T02:16:17.311Z,14.12
2022-09-13T02:18:49.884Z,14.23
2022-09-13T02:21:22.930Z,13.95
2022-09-13T02:23:53.680Z,13.75
2022-09-13T02:26:23.036Z,13.79
2022-09-13T02:28:53.514Z,14.03
2022-09-13T02:32:06.639Z,13.91
2022-09-13T02:34:41.975Z,13.91
2022-09-13T02:37:11.667Z,14.05
2022-09-13T02:39:44.979Z,14.32
2022-09-13T02:42:18.180Z,14.08
2022-09-13T02:44:49.820Z,13.87
2022-09-13T02:47:43.063Z,14.06
2022-09-13T02:50:34.511Z,14.35
2022-09-13T02:53:13.723Z,13.60
2022-09-13T02:56:18.591Z,13.98
2022-09-13T02:58:53.207Z,13.50
2022-09-13T03:01:21.885Z,13.72
2022-09-13T03:03:54.038Z,13.51
2022-09-13T03:06:22.891Z,14.11
2022-09-13T03:08:51.141Z,13.95
2022-09-13T03:11:51.742Z,13.57
2022-09-13T03:14:34.570Z,13.69
2022-09-13T03:17:15.953Z,13.80
2022-09-13T03:20:13.551Z,13.94
2022-09-13T03:22:47.270Z,13.46
2022-09-13T03:25:36.707Z,14.15
2022-09-13T03:28:19.523Z,14.18
2022-09-13T03:30:55.761Z,13.42
2022-09-13T03:33:31.916Z,13.23
2022-09-13T03:36:06.458Z,13.44
2022-09-13T03:38:46.282Z,13.43
2022-09-13T03:41:18.982Z,13.21
2022-09-13T03:44:16.444Z,13.47
2022-09-13T03:46:52.194Z,13.25
2022-09-13T03:49:23.337Z,13.30
2022-09-13T03:51:54.220Z,13.77
2022-09-13T03:54:32.469Z,13.97
2022-09-13T03:57:12.405Z,13.28
2022-09-13T03:59:44.814Z,12.91
2022-09-13T04:02:13.378Z,12.94
2022-09-13T04:04:43.595Z,13.44
2022-09-13T04:07:14.140Z,13.49
2022-09-13T04:09:42.606Z,13.59
2022-09-13T04:12:11.188Z,13.60
2022-09-13T04:14:39.259Z,13.05
2022-09-13T04:17:07.832Z,12.64
2022-09-13T04:19:35.584Z,12.73
2022-09-13T04:22:03.495Z,12.71
2022-09-13T04:24:31.850Z,12.91
2022-09-13T04:26:59.713Z,12.87
2022-09-13T04:29:27.653Z,12.80
2022-09-13T04:31:56.239Z,13.04
2022-09-13T04:34:30.191Z,12.80
2022-09-13T04:36:58.560Z,12.61
2022-09-13T04:39:26.318Z,12.77
2022-09-13T04:41:55.209Z,12.81
2022-09-13T04:44:24.620Z,12.71
2022-09-13T04:46:52.942Z,12.79
2022-09-13T04:49:22.095Z,12.74
2022-09-13T04:51:50.991Z,12.73
2022-09-13T04:54:18.817Z,12.63
2022-09-13T04:56:47.331Z,12.82
2022-09-13T04:59:15.869Z,12.82
2022-09-13T05:01:43.687Z,13.18
2022-09-13T05:04:12.397Z,13.10
2022-09-13T05:06:40.834Z,12.89
2022-09-13T05:09:13.701Z,12.95
2022-09-13T05:11:42.807Z,13.10
2022-09-13T05:14:11.579Z,13.23
2022-09-13T05:16:39.699Z,13.49
2022-09-13T05:19:08.682Z,13.72
2022-09-13T05:21:36.696Z,13.76
2022-09-13T05:24:04.716Z,13.77
2022-09-13T05:26:33.056Z,13.69
2022-09-13T05:29:01.444Z,13.67
2022-09-13T05:31:31.955Z,13.96
2022-09-13T05:34:01.704Z,14.19
2022-09-13T05:36:33.397Z,14.39
2022-09-13T05:39:26.375Z,14.42
2022-09-13T05:41:49.788Z,14.36
2022-09-13T05:44:18.345Z,14.68
2022-09-13T05:46:49.799Z,14.84
2022-09-13T05:49:18.703Z,15.11
2022-09-13T05:51:48.850Z,15.19
2022-09-13T05:54:17.338Z,15.13
2022-09-13T05:56:45.422Z,15.11
2022-09-13T05:59:14.447Z,15.11
2022-09-13T06:01:45.455Z,15.57
2022-09-13T06:04:14.751Z,15.71
2022-09-13T06:06:42.596Z,15.77
2022-09-13T06:09:12.090Z,15.92
2022-09-13T06:11:40.385Z,15.93
2022-09-13T06:14:08.472Z,16.32
2022-09-13T06:16:36.975Z,16.45
2022-09-13T06:19:05.243Z,16.36
2022-09-13T06:21:33.243Z,16.50
2022-09-13T06:24:01.141Z,16.52
2022-09-13T06:26:29.431Z,16.76
2022-09-13T06:29:00.102Z,17.02
2022-09-13T06:31:29.253Z,16.99
2022-09-13T06:34:09.250Z,17.23
2022-09-13T06:37:04.300Z,17.35
2022-09-13T06:39:50.034Z,17.54
2022-09-13T06:42:51.646Z,17.79
2022-09-13T06:45:24.414Z,17.90
2022-09-13T06:47:58.210Z,18.09
2022-09-13T06:51:03.539Z,18.24
2022-09-13T06:53:40.975Z,18.50
2022-09-13T06:56:22.200Z,18.52
2022-09-13T06:58:53.071Z,18.69
2022-09-13T07:01:36.073Z,18.94
2022-09-13T07:04:10.986Z,18.73
2022-09-13T07:06:43.931Z,19.03
2022-09-13T07:09:19.493Z,18.50
2022-09-13T07:11:52.519Z,18.55
2022-09-13T07:14:26.881Z,18.76
2022-09-13T07:16:55.724Z,18.85
2022-09-13T07:19:28.799Z,18.69
2022-09-13T07:21:57.321Z,18.90
2022-09-13T07:24:25.571Z,18.57
2022-09-13T07:26:54.222Z,18.97
2022-09-13T07:29:26.662Z,19.16
2022-09-13T07:31:56.008Z,19.10
2022-09-13T07:34:26.743Z,18.89
2022-09-13T07:36:55.265Z,19.17
2022-09-13T07:39:24.419Z,19.45
2022-09-13T07:41:54.017Z,19.60
2022-09-13T07:44:23.115Z,19.85
2022-09-13T07:46:51.534Z,19.60
2022-09-13T07:49:20.653Z,19.93
2022-09-13T07:51:51.663Z,19.92
2022-09-13T07:54:26.747Z,19.78
2022-09-13T07:56:58.054Z,19.57
2022-09-13T07:59:30.082Z,19.52
2022-09-13T08:02:10.736Z,19.83
2022-09-13T08:04:46.925Z,19.91
2022-09-13T08:07:17.905Z,20.21
2022-09-13T08:09:56.968Z,20.14
2022-09-13T08:12:25.088Z,20.26
2022-09-13T08:14:53.681Z,20.27
2022-09-13T08:17:40.922Z,20.41
2022-09-13T08:20:37.263Z,20.65
2022-09-13T08:23:22.399Z,20.43
2022-09-13T08:26:00.116Z,20.56
2022-09-13T08:28:38.797Z,20.46
2022-09-13T08:31:23.469Z,20.53
2022-09-13T08:34:58.523Z,20.83
2022-09-13T08:38:14.098Z,20.80
2022-09-13T08:40:46.414Z,21.11
2022-09-13T08:43:56.519Z,21.02
2022-09-13T08:46:51.252Z,21.08
2022-09-13T08:49:29.392Z,21.23
2022-09-13T08:52:12.104Z,21.60
2022-09-13T08:54:40.382Z,21.31
2022-09-13T08:57:15.509Z,21.49
2022-09-13T08:59:58.502Z,21.65
2022-09-13T09:02:51.727Z,22.00
2022-09-13T09:05:29.230Z,22.14
2022-09-13T09:08:00.403Z,21.91
2022-09-13T09:10:40.896Z,21.85
2022-09-13T09:13:45.461Z,21.98
2022-09-13T09:16:22.602Z,22.60
2022-09-13T09:18:50.430Z,22.45
2022-09-13T09:21:19.292Z,22.52
2022-09-13T09:23:52.237Z,22.54
2022-09-13T09:26:29.347Z,22.45
2022-09-13T09:29:00.102Z,22.58
2022-09-13T09:57:00.176Z,24.61
2022-09-13T09:59:34.227Z,24.61
2022-09-13T10:02:14.573Z,23.68
2022-09-13T10:04:56.078Z,23.85
2022-09-13T10:07:35.933Z,24.26
2022-09-13T10:10:10.330Z,24.25
2022-09-13T10:12:40.222Z,24.47
2022-09-13T10:15:34.565Z,24.27
2022-09-13T10:37:11.596Z,24.58
2022-09-13T11:09:24.179Z,24.99
2022-09-13T11:12:19.174Z,25.25
2022-09-13T11:15:13.702Z,25.20
2022-09-13T11:24:18.196Z,25.10
2022-09-13T11:27:04.844Z,25.54
2022-09-13T11:29:44.645Z,25.74
2022-09-13T11:32:59.189Z,25.54
2022-09-13T11:59:34.968Z,26.05
2022-09-13T12:02:14.108Z,26.38
2022-09-13T12:16:58.736Z,27.41
2022-09-13T13:54:03.358Z,28.27
2022-09-13T13:57:58.804Z,28.16
2022-09-13T14:05:01.577Z,28.56
2022-09-13T14:20:15.052Z,28.55
2022-09-13T14:45:45.190Z,28.03
2022-09-13T14:48:56.356Z,27.93
2022-09-13T15:13:11.405Z,27.29
2022-09-13T15:15:43.439Z,26.97
2022-09-13T15:18:20.442Z,26.94
2022-09-13T15:20:56.979Z,27.09
2022-09-13T15:23:38.915Z,27.10
2022-09-13T15:26:10.201Z,27.13
2022-09-13T15:28:41.861Z,27.11
2022-09-13T15:31:11.306Z,27.08
2022-09-13T15:33:43.482Z,26.82
2022-09-13T15:36:27.700Z,26.77
2022-09-13T15:39:06.116Z,26.87
2022-09-13T15:41:38.408Z,27.13
2022-09-13T15:44:09.731Z,26.86
2022-09-13T15:46:49.794Z,26.40
2022-09-13T15:49:20.489Z,26.77
2022-09-13T15:51:59.084Z,26.57
2022-09-13T15:54:39.419Z,26.75
2022-09-13T15:57:10.421Z,26.78
2022-09-13T15:59:38.594Z,26.37
2022-09-13T16:02:31.426Z,26.31
2022-09-13T16:05:02.913Z,26.28
2022-09-13T16:07:31.117Z,26.12
2022-09-13T16:09:59.787Z,26.21
2022-09-13T16:12:27.871Z,26.09
2022-09-13T16:14:55.778Z,26.21
2022-09-13T16:17:26.172Z,26.11
2022-09-13T16:19:54.887Z,26.20
2022-09-13T16:22:22.967Z,26.04
2022-09-13T16:24:50.821Z,25.68
2022-09-13T16:27:19.929Z,25.59
2022-09-13T16:29:47.853Z,24.79
2022-09-13T16:32:15.770Z,25.07
2022-09-13T16:34:44.273Z,25.17
2022-09-13T16:37:17.533Z,25.21
2022-09-13T16:39:46.470Z,24.79
2022-09-13T16:42:17.803Z,24.81
2022-09-13T16:44:46.567Z,24.92
2022-09-13T16:47:14.721Z,25.20
2022-09-13T16:49:42.778Z,25.44
2022-09-13T16:52:11.056Z,25.27
2022-09-13T16:54:38.961Z,25.34
2022-09-13T16:57:10.081Z,25.19
2022-09-13T16:59:38.244Z,25.29
2022-09-13T17:02:06.040Z,25.22
2022-09-13T17:04:34.425Z,25.11
2022-09-13T17:07:05.102Z,24.92
2022-09-13T17:09:34.635Z,25.06
2022-09-13T17:12:04.273Z,25.31
2022-09-13T17:14:33.502Z,25.31
2022-09-13T17:17:01.940Z,25.14
2022-09-13T17:19:35.834Z,25.12
2022-09-13T17:22:06.259Z,24.73
2022-09-13T17:24:34.567Z,24.58
2022-09-13T17:27:02.511Z,24.52
2022-09-13T17:29:31.554Z,24.40
2022-09-13T17:32:00.765Z,24.74
2022-09-13T17:34:31.089Z,24.53
2022-09-13T17:36:59.901Z,24.30
2022-09-13T17:39:27.769Z,24.32
2022-09-13T17:41:55.667Z,24.29
2022-09-13T17:44:24.222Z,24.28
2022-09-13T17:46:52.295Z,24.18
2022-09-13T17:49:20.334Z,23.78
2022-09-13T17:51:50.371Z,23.78
2022-09-13T17:54:18.207Z,24.14
2022-09-13T17:56:47.879Z,24.17
2022-09-13T17:59:19.622Z,23.81
2022-09-13T18:01:53.134Z,23.97
2022-09-13T18:04:24.806Z,23.88
2022-09-13T18:06:53.761Z,23.78
2022-09-13T18:09:22.103Z,23.60
2022-09-13T18:11:51.425Z,23.57
2022-09-13T18:14:42.338Z,23.45
2022-09-13T18:17:13.702Z,23.38
2022-09-13T18:19:46.654Z,23.01
2022-09-13T18:22:15.304Z,22.90
2022-09-13T18:24:43.354Z,22.60
2022-09-13T18:27:11.475Z,22.67
2022-09-13T18:29:43.069Z,22.86
2022-09-13T18:32:11.234Z,22.86
2022-09-13T18:34:42.631Z,23.02
2022-09-13T18:37:11.372Z,22.88
2022-09-13T18:39:44.724Z,22.91
2022-09-13T18:42:13.417Z,22.60
2022-09-13T18:44:42.752Z,22.54
2022-09-13T18:47:13.187Z,21.88
2022-09-13T18:49:41.509Z,21.60
2022-09-13T18:52:14.483Z,21.61
2022-09-13T18:54:42.510Z,21.85
2022-09-13T18:57:11.316Z,22.09
2022-09-13T18:59:39.649Z,22.11
2022-09-13T19:02:09.338Z,22.13
2022-09-13T19:04:38.970Z,21.98
2022-09-13T19:07:07.473Z,22.00
2022-09-13T19:09:36.063Z,22.09
2022-09-13T19:12:05.332Z,22.08
2022-09-13T19:14:33.579Z,21.80
2022-09-13T19:17:01.969Z,22.13
2022-09-13T19:19:32.267Z,21.97
2022-09-13T19:22:00.978Z,21.78
2022-09-13T19:24:33.054Z,21.79
2022-09-13T19:27:02.948Z,21.83
2022-09-13T19:29:31.731Z,21.50
2022-09-13T19:32:01.384Z,21.57
2022-09-13T19:34:29.663Z,21.67
2022-09-13T19:36:59.311Z,21.33
2022-09-13T19:39:30.622Z,21.16
2022-09-13T19:42:00.929Z,21.81
2022-09-13T19:44:30.077Z,21.64
2022-09-13T19:47:44.833Z,21.29
2022-09-13T19:49:50.213Z,21.23
2022-09-13T19:52:18.654Z,21.60
2022-09-13T19:54:47.140Z,21.09
2022-09-13T19:57:15.697Z,21.27
2022-09-13T19:59:45.772Z,21.34
2022-09-13T20:02:15.351Z,20.97
2022-09-13T20:04:44.050Z,21.15
2022-09-13T20:07:15.277Z,20.73
2022-09-13T20:09:47.552Z,20.79
2022-09-13T20:12:15.661Z,20.84
2022-09-13T20:14:46.194Z,20.75
2022-09-13T20:17:16.359Z,20.79
2022-09-13T20:19:49.843Z,20.83
2022-09-13T20:22:22.821Z,20.59
2022-09-13T20:24:52.682Z,20.84
2022-09-13T20:27:26.815Z,20.71
2022-09-13T20:30:05.205Z,20.49
2022-09-13T20:32:38.053Z,20.47
2022-09-13T20:35:07.772Z,20.44
2022-09-13T20:37:39.177Z,19.60
2022-09-13T20:40:10.639Z,20.10
2022-09-13T20:42:40.238Z,20.72
2022-09-13T20:45:10.239Z,20.47
2022-09-13T20:47:38.526Z,20.47
2022-09-13T20:50:07.792Z,20.87
2022-09-13T20:52:36.914Z,20.61
2022-09-13T20:55:08.466Z,20.95
2022-09-13T20:57:36.941Z,20.96
2022-09-13T21:00:06.185Z,20.62
2022-09-13T21:02:37.639Z,20.99
2022-09-13T21:05:06.503Z,20.65
2022-09-13T21:07:54.409Z,20.74
2022-09-13T21:10:24.672Z,20.49
2022-09-13T21:12:53.426Z,20.49
2022-09-13T21:15:22.473Z,20.48
2022-09-13T21:17:50.531Z,20.38
2022-09-13T21:20:19.905Z,20.40
2022-09-13T21:22:48.325Z,20.47
2022-09-13T21:25:16.416Z,20.51
2022-09-13T21:27:47.046Z,20.61
2022-09-13T21:30:15.935Z,20.83
2022-09-13T21:32:44.385Z,21.12
2022-09-13T21:35:14.963Z,20.60
2022-09-13T21:37:43.154Z,21.14
2022-09-13T21:40:11.765Z,21.13
2022-09-13T21:42:42.121Z,20.81
2022-09-13T21:45:10.193Z,20.42
2022-09-13T21:47:38.052Z,20.54
2022-09-13T21:50:07.297Z,20.71
2022-09-13T21:52:37.135Z,20.97
2022-09-13T21:55:05.991Z,21.00
2022-09-13T21:57:34.464Z,21.06
2022-09-13T22:00:03.019Z,20.74
2022-09-13T22:02:45.906Z,20.82
2022-09-13T22:05:14.919Z,20.84
2022-09-13T22:07:43.326Z,20.80
2022-09-13T22:10:34.199Z,20.58
2022-09-13T22:13:08.346Z,20.60
2022-09-13T22:15:41.455Z,20.55
2022-09-13T22:18:12.312Z,20.32
2022-09-13T22:20:43.521Z,20.41
2022-09-13T22:23:14.387Z,20.38
2022-09-13T22:25:48.547Z,20.29
2022-09-13T22:28:17.867Z,20.22
2022-09-13T22:30:47.359Z,20.30
2022-09-13T22:33:23.294Z,20.12
2022-09-13T22:36:07.847Z,19.87
2022-09-13T22:38:42.752Z,19.74
2022-09-13T22:41:23.354Z,19.74
2022-09-13T22:43:55.200Z,19.92
2022-09-13T22:46:33.173Z,19.91
2022-09-13T22:49:03.541Z,20.12
2022-09-13T22:51:36.384Z,19.88
2022-09-13T22:54:09.436Z,20.15
2022-09-13T22:56:43.862Z,20.04
2022-09-13T22:59:23.230Z,20.50
2022-09-13T23:01:52.868Z,20.05
2022-09-13T23:04:26.215Z,19.87
2022-09-13T23:06:59.001Z,19.36
2022-09-13T23:09:28.773Z,19.52
2022-09-13T23:12:01.479Z,19.43
2022-09-13T23:14:33.083Z,19.47
2022-09-13T23:17:07.315Z,19.33
2022-09-13T23:19:36.991Z,19.31
2022-09-13T23:22:10.294Z,19.18
2022-09-13T23:24:41.451Z,19.25
2022-09-13T23:27:16.626Z,19.33
2022-09-13T23:29:47.368Z,19.15
2022-09-13T23:32:19.365Z,18.80
2022-09-13T23:34:51.607Z,19.00
2022-09-13T23:37:23.328Z,18.98
2022-09-13T23:39:58.830Z,18.90
2022-09-13T23:42:32.973Z,18.95
2022-09-13T23:45:07.781Z,19.07
2022-09-13T23:47:38.769Z,18.81
2022-09-13T23:50:11.376Z,18.70
2022-09-13T23:52:45.624Z,18.34
2022-09-13T23:55:18.592Z,18.69
2022-09-13T23:57:48.918Z,18.42
